sensor_id;sensor_type;location;lat;lon;timestamp;P1;durP1;ratioP1;P2;durP2;ratioP2
45388;SDS011;31127;52.078;4.370;2023-04-15T00:02:03;4.93;;;1.98;;
45388;SDS011;31127;52.078;4.370;2023-04-15T00:07:07;6.15;;;2.53;;
45388;SDS011;31127;52.078;4.370;2023-04-15T00:12:03;3.40;;;2.20;;
45388;SDS011;31127;52.078;4.370;2023-04-15T00:16:59;5.40;;;3.47;;
45388;SDS011;31127;52.078;4.370;2023-04-15T00:21:55;5.13;;;2.78;;
45388;SDS011;31127;52.078;4.370;2023-04-15T00:26:50;3.97;;;2.22;;
45388;SDS011;31127;52.078;4.370;2023-04-15T00:31:46;7.68;;;3.22;;
45388;SDS011;31127;52.078;4.370;2023-04-15T00:36:41;4.55;;;2.75;;
45388;SDS011;31127;52.078;4.370;2023-04-15T00:41:37;6.70;;;2.33;;
45388;SDS011;31127;52.078;4.370;2023-04-15T00:46:37;4.22;;;2.63;;
45388;SDS011;31127;52.078;4.370;2023-04-15T00:51:33;7.05;;;2.80;;
45388;SDS011;31127;52.078;4.370;2023-04-15T00:56:33;3.90;;;2.72;;
45388;SDS011;31127;52.078;4.370;2023-04-15T01:01:29;5.30;;;2.72;;
45388;SDS011;31127;52.078;4.370;2023-04-15T01:06:26;11.00;;;3.05;;
45388;SDS011;31127;52.078;4.370;2023-04-15T01:11:22;6.07;;;3.03;;
45388;SDS011;31127;52.078;4.370;2023-04-15T01:16:18;3.53;;;3.15;;
45388;SDS011;31127;52.078;4.370;2023-04-15T01:21:14;6.43;;;2.95;;
45388;SDS011;31127;52.078;4.370;2023-04-15T01:26:09;4.25;;;2.95;;
45388;SDS011;31127;52.078;4.370;2023-04-15T01:31:05;6.63;;;3.15;;
45388;SDS011;31127;52.078;4.370;2023-04-15T01:36:21;6.85;;;3.45;;
45388;SDS011;31127;52.078;4.370;2023-04-15T01:41:20;5.63;;;3.08;;
45388;SDS011;31127;52.078;4.370;2023-04-15T01:46:16;9.45;;;3.45;;
45388;SDS011;31127;52.078;4.370;2023-04-15T01:51:11;4.03;;;3.10;;
45388;SDS011;31127;52.078;4.370;2023-04-15T01:56:07;6.38;;;3.08;;
45388;SDS011;31127;52.078;4.370;2023-04-15T02:01:22;7.55;;;3.53;;
45388;SDS011;31127;52.078;4.370;2023-04-15T02:06:18;9.27;;;3.30;;
45388;SDS011;31127;52.078;4.370;2023-04-15T02:11:13;6.32;;;3.22;;
45388;SDS011;31127;52.078;4.370;2023-04-15T02:16:16;9.20;;;3.40;;
45388;SDS011;31127;52.078;4.370;2023-04-15T02:21:12;5.85;;;3.10;;
45388;SDS011;31127;52.078;4.370;2023-04-15T02:26:08;7.20;;;3.28;;
45388;SDS011;31127;52.078;4.370;2023-04-15T02:31:04;6.18;;;3.50;;
45388;SDS011;31127;52.078;4.370;2023-04-15T02:36:00;5.22;;;3.22;;
45388;SDS011;31127;52.078;4.370;2023-04-15T02:40:56;10.25;;;3.97;;
45388;SDS011;31127;52.078;4.370;2023-04-15T02:45:52;6.35;;;3.45;;
45388;SDS011;31127;52.078;4.370;2023-04-15T02:50:49;6.07;;;3.47;;
45388;SDS011;31127;52.078;4.370;2023-04-15T02:55:45;6.82;;;3.47;;
45388;SDS011;31127;52.078;4.370;2023-04-15T03:00:41;8.35;;;3.75;;
45388;SDS011;31127;52.078;4.370;2023-04-15T03:05:36;6.17;;;3.00;;
45388;SDS011;31127;52.078;4.370;2023-04-15T03:10:33;7.78;;;3.00;;
45388;SDS011;31127;52.078;4.370;2023-04-15T03:15:31;7.20;;;3.60;;
45388;SDS011;31127;52.078;4.370;2023-04-15T03:20:27;11.55;;;3.15;;
45388;SDS011;31127;52.078;4.370;2023-04-15T03:25:22;6.38;;;3.50;;
45388;SDS011;31127;52.078;4.370;2023-04-15T03:30:18;6.50;;;3.30;;
45388;SDS011;31127;52.078;4.370;2023-04-15T03:35:14;5.75;;;3.22;;
45388;SDS011;31127;52.078;4.370;2023-04-15T03:40:10;11.43;;;3.42;;
45388;SDS011;31127;52.078;4.370;2023-04-15T03:45:25;6.97;;;3.53;;
45388;SDS011;31127;52.078;4.370;2023-04-15T03:50:20;6.50;;;3.10;;
45388;SDS011;31127;52.078;4.370;2023-04-15T03:55:16;10.45;;;3.10;;
45388;SDS011;31127;52.078;4.370;2023-04-15T04:00:31;8.07;;;3.38;;
45388;SDS011;31127;52.078;4.370;2023-04-15T04:05:27;7.00;;;3.67;;
45388;SDS011;31127;52.078;4.370;2023-04-15T04:10:22;10.03;;;4.07;;
45388;SDS011;31127;52.078;4.370;2023-04-15T04:15:18;8.13;;;3.50;;
45388;SDS011;31127;52.078;4.370;2023-04-15T04:20:13;7.03;;;3.83;;
45388;SDS011;31127;52.078;4.370;2023-04-15T04:25:08;5.10;;;3.15;;
45388;SDS011;31127;52.078;4.370;2023-04-15T04:30:04;10.98;;;3.90;;
45388;SDS011;31127;52.078;4.370;2023-04-15T04:35:01;9.98;;;3.42;;
45388;SDS011;31127;52.078;4.370;2023-04-15T04:39:56;6.40;;;3.97;;
45388;SDS011;31127;52.078;4.370;2023-04-15T04:44:51;8.50;;;3.93;;
45388;SDS011;31127;52.078;4.370;2023-04-15T04:49:47;7.32;;;3.60;;
45388;SDS011;31127;52.078;4.370;2023-04-15T04:54:43;7.85;;;3.80;;
45388;SDS011;31127;52.078;4.370;2023-04-15T04:59:39;8.67;;;3.80;;
45388;SDS011;31127;52.078;4.370;2023-04-15T05:04:35;8.93;;;3.88;;
45388;SDS011;31127;52.078;4.370;2023-04-15T05:09:31;7.55;;;3.35;;
45388;SDS011;31127;52.078;4.370;2023-04-15T05:14:27;8.05;;;3.63;;
45388;SDS011;31127;52.078;4.370;2023-04-15T05:19:22;8.73;;;3.67;;
45388;SDS011;31127;52.078;4.370;2023-04-15T05:24:18;9.05;;;3.60;;
45388;SDS011;31127;52.078;4.370;2023-04-15T05:29:13;8.68;;;3.50;;
45388;SDS011;31127;52.078;4.370;2023-04-15T05:34:29;6.85;;;3.50;;
45388;SDS011;31127;52.078;4.370;2023-04-15T05:39:24;5.65;;;3.03;;
45388;SDS011;31127;52.078;4.370;2023-04-15T05:44:20;8.27;;;3.28;;
45388;SDS011;31127;52.078;4.370;2023-04-15T05:49:16;5.80;;;3.40;;
45388;SDS011;31127;52.078;4.370;2023-04-15T05:54:11;7.27;;;3.50;;
45388;SDS011;31127;52.078;4.370;2023-04-15T05:59:06;10.07;;;3.60;;
45388;SDS011;31127;52.078;4.370;2023-04-15T06:04:02;6.63;;;3.53;;
45388;SDS011;31127;52.078;4.370;2023-04-15T06:09:18;5.95;;;3.50;;
45388;SDS011;31127;52.078;4.370;2023-04-15T06:14:33;10.10;;;4.05;;
45388;SDS011;31127;52.078;4.370;2023-04-15T06:19:49;8.27;;;3.72;;
45388;SDS011;31127;52.078;4.370;2023-04-15T06:24:49;6.78;;;3.60;;
45388;SDS011;31127;52.078;4.370;2023-04-15T06:29:45;6.50;;;4.18;;
45388;SDS011;31127;52.078;4.370;2023-04-15T06:34:41;8.55;;;3.97;;
45388;SDS011;31127;52.078;4.370;2023-04-15T06:39:36;7.23;;;3.70;;
45388;SDS011;31127;52.078;4.370;2023-04-15T06:44:32;6.38;;;3.88;;
45388;SDS011;31127;52.078;4.370;2023-04-15T06:49:27;9.93;;;3.70;;
45388;SDS011;31127;52.078;4.370;2023-04-15T06:54:23;7.80;;;4.15;;
45388;SDS011;31127;52.078;4.370;2023-04-15T06:59:18;8.57;;;4.13;;
45388;SDS011;31127;52.078;4.370;2023-04-15T07:04:14;6.43;;;4.22;;
45388;SDS011;31127;52.078;4.370;2023-04-15T07:09:30;8.68;;;3.97;;
45388;SDS011;31127;52.078;4.370;2023-04-15T07:14:26;6.22;;;4.20;;
45388;SDS011;31127;52.078;4.370;2023-04-15T07:19:22;6.27;;;3.23;;
45388;SDS011;31127;52.078;4.370;2023-04-15T07:24:17;10.70;;;4.20;;
45388;SDS011;31127;52.078;4.370;2023-04-15T07:29:14;5.55;;;3.60;;
45388;SDS011;31127;52.078;4.370;2023-04-15T07:34:09;7.53;;;3.78;;
45388;SDS011;31127;52.078;4.370;2023-04-15T07:39:05;6.68;;;3.67;;
45388;SDS011;31127;52.078;4.370;2023-04-15T07:44:00;20.23;;;8.75;;
45388;SDS011;31127;52.078;4.370;2023-04-15T07:49:16;6.95;;;4.07;;
45388;SDS011;31127;52.078;4.370;2023-04-15T07:54:13;8.32;;;3.78;;
45388;SDS011;31127;52.078;4.370;2023-04-15T07:59:09;10.23;;;3.63;;
45388;SDS011;31127;52.078;4.370;2023-04-15T08:04:07;8.20;;;3.70;;
45388;SDS011;31127;52.078;4.370;2023-04-15T08:09:02;9.43;;;4.85;;
45388;SDS011;31127;52.078;4.370;2023-04-15T08:13:58;6.55;;;3.38;;
45388;SDS011;31127;52.078;4.370;2023-04-15T08:18:54;6.57;;;3.75;;
45388;SDS011;31127;52.078;4.370;2023-04-15T08:24:10;7.00;;;4.07;;
45388;SDS011;31127;52.078;4.370;2023-04-15T08:29:26;9.75;;;4.05;;
45388;SDS011;31127;52.078;4.370;2023-04-15T08:34:22;7.30;;;3.83;;
45388;SDS011;31127;52.078;4.370;2023-04-15T08:39:17;6.50;;;3.45;;
45388;SDS011;31127;52.078;4.370;2023-04-15T08:44:13;9.77;;;3.42;;
45388;SDS011;31127;52.078;4.370;2023-04-15T08:49:09;5.72;;;2.47;;
45388;SDS011;31127;52.078;4.370;2023-04-15T08:54:25;4.03;;;2.30;;
45388;SDS011;31127;52.078;4.370;2023-04-15T08:59:21;6.05;;;2.90;;
45388;SDS011;31127;52.078;4.370;2023-04-15T09:04:16;6.53;;;3.73;;
45388;SDS011;31127;52.078;4.370;2023-04-15T09:09:12;3.63;;;2.30;;
45388;SDS011;31127;52.078;4.370;2023-04-15T09:14:08;6.00;;;3.78;;
45388;SDS011;31127;52.078;4.370;2023-04-15T09:19:19;5.55;;;2.92;;
45388;SDS011;31127;52.078;4.370;2023-04-15T09:24:14;4.38;;;2.33;;
45388;SDS011;31127;52.078;4.370;2023-04-15T09:29:30;6.40;;;2.25;;
45388;SDS011;31127;52.078;4.370;2023-04-15T09:34:35;3.85;;;2.15;;
45388;SDS011;31127;52.078;4.370;2023-04-15T09:39:44;7.45;;;2.10;;
45388;SDS011;31127;52.078;4.370;2023-04-15T09:44:41;5.80;;;1.88;;
45388;SDS011;31127;52.078;4.370;2023-04-15T09:49:36;6.07;;;2.20;;
45388;SDS011;31127;52.078;4.370;2023-04-15T09:54:35;4.85;;;2.40;;
45388;SDS011;31127;52.078;4.370;2023-04-15T09:59:31;3.70;;;2.05;;
45388;SDS011;31127;52.078;4.370;2023-04-15T10:04:26;2.95;;;1.75;;
45388;SDS011;31127;52.078;4.370;2023-04-15T10:09:22;6.30;;;2.28;;
45388;SDS011;31127;52.078;4.370;2023-04-15T10:14:19;3.55;;;1.73;;
45388;SDS011;31127;52.078;4.370;2023-04-15T10:19:14;1.40;;;0.97;;
45388;SDS011;31127;52.078;4.370;2023-04-15T10:24:13;2.50;;;1.48;;
45388;SDS011;31127;52.078;4.370;2023-04-15T10:29:10;3.97;;;1.30;;
45388;SDS011;31127;52.078;4.370;2023-04-15T10:34:06;3.35;;;1.30;;
45388;SDS011;31127;52.078;4.370;2023-04-15T10:39:02;4.75;;;;;
45388;SDS011;31127;52.078;4.370;2023-04-15T10:44:04;2.10;;;1.90;;
45388;SDS011;31127;52.078;4.370;2023-04-15T10:49:00;1.83;;;1.73;;
45388;SDS011;31127;52.078;4.370;2023-04-15T10:54:00;1.98;;;1.80;;
45388;SDS011;31127;52.078;4.370;2023-04-15T10:59:13;2.17;;;1.98;;
45388;SDS011;31127;52.078;4.370;2023-04-15T11:04:10;2.50;;;1.90;;
45388;SDS011;31127;52.078;4.370;2023-04-15T11:09:05;2.77;;;1.90;;
45388;SDS011;31127;52.078;4.370;2023-04-15T11:14:03;2.08;;;1.83;;
45388;SDS011;31127;52.078;4.370;2023-04-15T11:18:59;4.10;;;2.00;;
45388;SDS011;31127;52.078;4.370;2023-04-15T11:23:55;2.65;;;1.60;;
45388;SDS011;31127;52.078;4.370;2023-04-15T11:28:51;3.63;;;2.10;;
45388;SDS011;31127;52.078;4.370;2023-04-15T11:34:06;1.90;;;1.35;;
45388;SDS011;31127;52.078;4.370;2023-04-15T11:39:21;2.80;;;1.65;;
45388;SDS011;31127;52.078;4.370;2023-04-15T11:44:17;3.15;;;1.90;;
45388;SDS011;31127;52.078;4.370;2023-04-15T11:49:32;1.92;;;1.83;;
45388;SDS011;31127;52.078;4.370;2023-04-15T11:54:32;5.93;;;1.93;;
45388;SDS011;31127;52.078;4.370;2023-04-15T11:59:47;3.65;;;2.28;;
45388;SDS011;31127;52.078;4.370;2023-04-15T12:05:03;2.67;;;1.98;;
45388;SDS011;31127;52.078;4.370;2023-04-15T12:09:59;3.00;;;1.98;;
45388;SDS011;31127;52.078;4.370;2023-04-15T12:15:14;2.83;;;2.00;;
45388;SDS011;31127;52.078;4.370;2023-04-15T12:20:10;4.00;;;2.05;;
45388;SDS011;31127;52.078;4.370;2023-04-15T12:25:06;2.30;;;1.60;;
45388;SDS011;31127;52.078;4.370;2023-04-15T12:30:13;3.75;;;2.00;;
45388;SDS011;31127;52.078;4.370;2023-04-15T12:35:09;5.00;;;2.50;;
45388;SDS011;31127;52.078;4.370;2023-04-15T12:40:04;5.57;;;2.40;;
45388;SDS011;31127;52.078;4.370;2023-04-15T12:45:02;6.22;;;2.60;;
45388;SDS011;31127;52.078;4.370;2023-04-15T12:50:18;6.03;;;1.85;;
45388;SDS011;31127;52.078;4.370;2023-04-15T12:55:13;3.38;;;1.70;;
45388;SDS011;31127;52.078;4.370;2023-04-15T13:00:09;4.20;;;2.20;;
45388;SDS011;31127;52.078;4.370;2023-04-15T13:05:14;3.40;;;1.63;;
45388;SDS011;31127;52.078;4.370;2023-04-15T13:10:10;2.33;;;1.60;;
45388;SDS011;31127;52.078;4.370;2023-04-15T13:15:05;1.77;;;1.50;;
45388;SDS011;31127;52.078;4.370;2023-04-15T13:20:21;3.03;;;1.98;;
45388;SDS011;31127;52.078;4.370;2023-04-15T13:25:16;4.28;;;1.85;;
45388;SDS011;31127;52.078;4.370;2023-04-15T13:30:11;4.00;;;1.70;;
45388;SDS011;31127;52.078;4.370;2023-04-15T13:35:16;3.83;;;2.13;;
45388;SDS011;31127;52.078;4.370;2023-04-15T13:40:11;2.67;;;1.67;;
45388;SDS011;31127;52.078;4.370;2023-04-15T13:45:27;5.70;;;1.75;;
45388;SDS011;31127;52.078;4.370;2023-04-15T13:50:23;2.72;;;1.65;;
45388;SDS011;31127;52.078;4.370;2023-04-15T13:55:18;2.97;;;1.50;;
45388;SDS011;31127;52.078;4.370;2023-04-15T14:00:14;4.85;;;1.67;;
45388;SDS011;31127;52.078;4.370;2023-04-15T14:05:10;1.35;;;1.10;;
45388;SDS011;31127;52.078;4.370;2023-04-15T14:10:05;4.22;;;1.38;;
45388;SDS011;31127;52.078;4.370;2023-04-15T14:15:01;3.38;;;1.45;;
45388;SDS011;31127;52.078;4.370;2023-04-15T14:19:56;4.43;;;1.15;;
45388;SDS011;31127;52.078;4.370;2023-04-15T14:24:52;4.55;;;1.30;;
45388;SDS011;31127;52.078;4.370;2023-04-15T14:29:48;3.15;;;1.58;;
45388;SDS011;31127;52.078;4.370;2023-04-15T14:35:04;6.10;;;2.25;;
45388;SDS011;31127;52.078;4.370;2023-04-15T14:40:00;2.75;;;1.33;;
45388;SDS011;31127;52.078;4.370;2023-04-15T14:44:55;5.40;;;2.27;;
45388;SDS011;31127;52.078;4.370;2023-04-15T14:49:51;5.63;;;1.67;;
45388;SDS011;31127;52.078;4.370;2023-04-15T14:55:07;2.58;;;1.38;;
45388;SDS011;31127;52.078;4.370;2023-04-15T15:00:03;4.28;;;1.30;;
45388;SDS011;31127;52.078;4.370;2023-04-15T15:04:59;4.32;;;1.58;;
45388;SDS011;31127;52.078;4.370;2023-04-15T15:09:55;5.00;;;1.65;;
45388;SDS011;31127;52.078;4.370;2023-04-15T15:14:50;4.03;;;1.42;;
45388;SDS011;31127;52.078;4.370;2023-04-15T15:19:46;3.10;;;1.53;;
45388;SDS011;31127;52.078;4.370;2023-04-15T15:25:01;4.18;;;1.27;;
45388;SDS011;31127;52.078;4.370;2023-04-15T15:30:17;4.38;;;1.42;;
45388;SDS011;31127;52.078;4.370;2023-04-15T15:35:12;3.17;;;1.40;;
45388;SDS011;31127;52.078;4.370;2023-04-15T15:40:08;5.10;;;1.40;;
45388;SDS011;31127;52.078;4.370;2023-04-15T15:45:23;2.05;;;1.30;;
45388;SDS011;31127;52.078;4.370;2023-04-15T15:50:19;5.28;;;1.75;;
45388;SDS011;31127;52.078;4.370;2023-04-15T15:55:15;1.75;;;1.08;;
45388;SDS011;31127;52.078;4.370;2023-04-15T16:00:30;5.32;;;1.40;;
45388;SDS011;31127;52.078;4.370;2023-04-15T16:05:25;4.10;;;1.30;;
45388;SDS011;31127;52.078;4.370;2023-04-15T16:10:21;3.35;;;1.77;;
45388;SDS011;31127;52.078;4.370;2023-04-15T16:15:17;2.97;;;1.55;;
45388;SDS011;31127;52.078;4.370;2023-04-15T16:20:12;4.68;;;1.02;;
45388;SDS011;31127;52.078;4.370;2023-04-15T16:25:07;2.77;;;1.30;;
45388;SDS011;31127;52.078;4.370;2023-04-15T16:30:03;3.85;;;1.45;;
45388;SDS011;31127;52.078;4.370;2023-04-15T16:34:59;3.08;;;0.90;;
45388;SDS011;31127;52.078;4.370;2023-04-15T16:39:54;3.40;;;1.05;;
45388;SDS011;31127;52.078;4.370;2023-04-15T16:44:50;3.50;;;0.90;;
45388;SDS011;31127;52.078;4.370;2023-04-15T16:50:05;4.35;;;1.27;;
45388;SDS011;31127;52.078;4.370;2023-04-15T16:55:01;2.90;;;1.60;;
45388;SDS011;31127;52.078;4.370;2023-04-15T16:59:56;6.63;;;1.20;;
45388;SDS011;31127;52.078;4.370;2023-04-15T17:04:52;3.22;;;0.68;;
45388;SDS011;31127;52.078;4.370;2023-04-15T17:09:47;3.43;;;1.00;;
45388;SDS011;31127;52.078;4.370;2023-04-15T17:15:03;2.58;;;0.60;;
45388;SDS011;31127;52.078;4.370;2023-04-15T17:19:58;6.57;;;0.90;;
45388;SDS011;31127;52.078;4.370;2023-04-15T17:24:54;4.35;;;0.70;;
45388;SDS011;31127;52.078;4.370;2023-04-15T17:30:09;4.43;;;1.42;;
45388;SDS011;31127;52.078;4.370;2023-04-15T17:35:05;4.18;;;0.85;;
45388;SDS011;31127;52.078;4.370;2023-04-15T17:40:01;1.77;;;0.70;;
45388;SDS011;31127;52.078;4.370;2023-04-15T17:45:15;12.32;;;4.50;;
45388;SDS011;31127;52.078;4.370;2023-04-15T17:50:11;3.15;;;0.80;;
45388;SDS011;31127;52.078;4.370;2023-04-15T17:55:06;3.17;;;0.45;;
45388;SDS011;31127;52.078;4.370;2023-04-15T18:00:02;1.70;;;0.52;;
45388;SDS011;31127;52.078;4.370;2023-04-15T18:05:07;1.35;;;0.43;;
45388;SDS011;31127;52.078;4.370;2023-04-15T18:10:03;2.08;;;0.68;;
45388;SDS011;31127;52.078;4.370;2023-04-15T18:15:18;3.10;;;0.80;;
45388;SDS011;31127;52.078;4.370;2023-04-15T18:20:34;3.60;;;0.75;;
45388;SDS011;31127;52.078;4.370;2023-04-15T18:25:30;3.83;;;0.88;;
45388;SDS011;31127;52.078;4.370;2023-04-15T18:30:26;7.18;;;0.93;;
45388;SDS011;31127;52.078;4.370;2023-04-15T18:35:21;3.33;;;1.52;;
45388;SDS011;31127;52.078;4.370;2023-04-15T18:40:20;3.60;;;0.77;;
45388;SDS011;31127;52.078;4.370;2023-04-15T18:45:15;2.58;;;0.70;;
45388;SDS011;31127;52.078;4.370;2023-04-15T18:50:11;3.47;;;0.68;;
45388;SDS011;31127;52.078;4.370;2023-04-15T18:55:26;4.43;;;0.60;;
45388;SDS011;31127;52.078;4.370;2023-04-15T19:00:41;5.07;;;1.05;;
45388;SDS011;31127;52.078;4.370;2023-04-15T19:05:38;2.20;;;0.32;;
45388;SDS011;31127;52.078;4.370;2023-04-15T19:10:34;6.32;;;0.98;;
45388;SDS011;31127;52.078;4.370;2023-04-15T19:15:29;5.55;;;0.82;;
45388;SDS011;31127;52.078;4.370;2023-04-15T19:20:25;6.68;;;1.83;;
45388;SDS011;31127;52.078;4.370;2023-04-15T19:25:21;1.42;;;0.40;;
45388;SDS011;31127;52.078;4.370;2023-04-15T19:30:16;3.78;;;0.47;;
45388;SDS011;31127;52.078;4.370;2023-04-15T19:35:12;4.93;;;0.80;;
45388;SDS011;31127;52.078;4.370;2023-04-15T19:40:07;7.82;;;0.73;;
45388;SDS011;31127;52.078;4.370;2023-04-15T19:45:03;2.72;;;1.23;;
45388;SDS011;31127;52.078;4.370;2023-04-15T19:49:59;4.00;;;0.80;;
45388;SDS011;31127;52.078;4.370;2023-04-15T19:54:55;2.20;;;0.55;;
45388;SDS011;31127;52.078;4.370;2023-04-15T19:59:50;6.60;;;1.00;;
45388;SDS011;31127;52.078;4.370;2023-04-15T20:04:45;0.63;;;0.50;;
45388;SDS011;31127;52.078;4.370;2023-04-15T20:09:41;1.63;;;0.27;;
45388;SDS011;31127;52.078;4.370;2023-04-15T20:14:56;3.85;;;0.75;;
45388;SDS011;31127;52.078;4.370;2023-04-15T20:19:52;5.68;;;1.42;;
45388;SDS011;31127;52.078;4.370;2023-04-15T20:24:47;9.90;;;0.90;;
45388;SDS011;31127;52.078;4.370;2023-04-15T20:29:43;6.18;;;1.00;;
45388;SDS011;31127;52.078;4.370;2023-04-15T20:34:38;2.10;;;0.63;;
45388;SDS011;31127;52.078;4.370;2023-04-15T20:39:56;3.80;;;0.50;;
45388;SDS011;31127;52.078;4.370;2023-04-15T20:44:52;2.22;;;0.60;;
45388;SDS011;31127;52.078;4.370;2023-04-15T20:49:47;13.77;;;3.50;;
45388;SDS011;31127;52.078;4.370;2023-04-15T20:54:43;5.15;;;0.95;;
45388;SDS011;31127;52.078;4.370;2023-04-15T20:59:38;3.15;;;0.50;;
45388;SDS011;31127;52.078;4.370;2023-04-15T21:04:54;1.13;;;0.25;;
45388;SDS011;31127;52.078;4.370;2023-04-15T21:09:50;5.25;;;0.50;;
45388;SDS011;31127;52.078;4.370;2023-04-15T21:14:45;1.73;;;0.45;;
45388;SDS011;31127;52.078;4.370;2023-04-15T21:19:41;0.77;;;0.20;;
45388;SDS011;31127;52.078;4.370;2023-04-15T21:24:36;4.00;;;1.60;;
45388;SDS011;31127;52.078;4.370;2023-04-15T21:29:31;1.67;;;0.47;;
45388;SDS011;31127;52.078;4.370;2023-04-15T21:34:27;2.83;;;0.38;;
45388;SDS011;31127;52.078;4.370;2023-04-15T21:39:23;0.75;;;0.30;;
45388;SDS011;31127;52.078;4.370;2023-04-15T21:44:19;1.65;;;0.57;;
45388;SDS011;31127;52.078;4.370;2023-04-15T21:49:14;2.28;;;0.47;;
45388;SDS011;31127;52.078;4.370;2023-04-15T21:54:10;5.63;;;0.50;;
45388;SDS011;31127;52.078;4.370;2023-04-15T21:59:05;1.35;;;0.30;;
45388;SDS011;31127;52.078;4.370;2023-04-15T22:04:01;2.45;;;0.50;;
45388;SDS011;31127;52.078;4.370;2023-04-15T22:08:56;0.93;;;0.40;;
45388;SDS011;31127;52.078;4.370;2023-04-15T22:13:52;0.75;;;0.30;;
45388;SDS011;31127;52.078;4.370;2023-04-15T22:18:48;1.63;;;0.47;;
45388;SDS011;31127;52.078;4.370;2023-04-15T22:23:46;3.17;;;0.60;;
45388;SDS011;31127;52.078;4.370;2023-04-15T22:29:02;3.10;;;0.40;;
45388;SDS011;31127;52.078;4.370;2023-04-15T22:34:14;1.15;;;0.43;;
45388;SDS011;31127;52.078;4.370;2023-04-15T22:39:14;3.60;;;0.47;;
45388;SDS011;31127;52.078;4.370;2023-04-15T22:44:10;3.88;;;1.98;;
45388;SDS011;31127;52.078;4.370;2023-04-15T22:49:06;2.55;;;0.57;;
45388;SDS011;31127;52.078;4.370;2023-04-15T22:54:01;3.78;;;1.00;;
45388;SDS011;31127;52.078;4.370;2023-04-15T22:58:57;0.93;;;0.53;;
45388;SDS011;31127;52.078;4.370;2023-04-15T23:03:52;2.43;;;0.63;;
45388;SDS011;31127;52.078;4.370;2023-04-15T23:09:07;4.97;;;0.50;;
45388;SDS011;31127;52.078;4.370;2023-04-15T23:14:03;18.10;;;6.22;;
45388;SDS011;31127;52.078;4.370;2023-04-15T23:18:58;1.80;;;0.53;;
45388;SDS011;31127;52.078;4.370;2023-04-15T23:23:54;2.27;;;1.07;;
45388;SDS011;31127;52.078;4.370;2023-04-15T23:29:09;2.20;;;1.15;;
45388;SDS011;31127;52.078;4.370;2023-04-15T23:34:05;5.80;;;1.20;;
45388;SDS011;31127;52.078;4.370;2023-04-15T23:39:00;3.03;;;0.90;;
45388;SDS011;31127;52.078;4.370;2023-04-15T23:43:56;5.72;;;0.90;;
45388;SDS011;31127;52.078;4.370;2023-04-15T23:48:51;6.65;;;1.45;;
45388;SDS011;31127;52.078;4.370;2023-04-15T23:53:47;3.40;;;0.70;;
45388;SDS011;31127;52.078;4.370;2023-04-15T23:58:43;3.80;;;0.85;;
